sensor_id;sensor_type;location;lat;lon;timestamp;P1;durP1;ratioP1;P2;durP2;ratioP2
70075;SDS011;63241;51.056;3.698;2022-12-15T12:59:48;36.55;;;24.77;;
70075;SDS011;63241;51.056;3.698;2022-12-15T13:04:50;34.27;;;24.37;;
70075;SDS011;63241;51.056;3.698;2022-12-15T13:07:40;34.65;;;24.32;;
70075;SDS011;63241;51.056;3.698;2022-12-15T13:10:15;38.95;;;26.40;;
70075;SDS011;63241;51.056;3.698;2022-12-15T13:15:38;36.95;;;25.62;;
70075;SDS011;63241;51.056;3.698;2022-12-15T13:20:42;34.92;;;25.62;;
70075;SDS011;63241;51.056;3.698;2022-12-15T13:33:54;36.75;;;25.77;;
70075;SDS011;63241;51.056;3.698;2022-12-15T19:42:49;152.62;;;79.85;;
70075;SDS011;63241;51.056;3.698;2022-12-15T19:45:19;160.15;;;83.07;;
70075;SDS011;63241;51.056;3.698;2022-12-15T19:47:48;153.80;;;80.80;;
70075;SDS011;63241;51.056;3.698;2022-12-15T19:50:17;149.87;;;82.15;;
70075;SDS011;63241;51.056;3.698;2022-12-15T19:58:54;168.20;;;82.72;;
70075;SDS011;63241;51.056;3.698;2022-12-15T20:01:21;179.27;;;87.57;;
70075;SDS011;63241;51.056;3.698;2022-12-15T20:03:50;175.27;;;85.32;;
70075;SDS011;63241;51.056;3.698;2022-12-15T20:12:57;156.28;;;74.20;;
70075;SDS011;63241;51.056;3.698;2022-12-15T20:15:28;159.97;;;79.05;;
70075;SDS011;63241;51.056;3.698;2022-12-15T20:17:55;168.50;;;79.80;;
70075;SDS011;63241;51.056;3.698;2022-12-15T20:53:29;183.10;;;86.15;;
70075;SDS011;63241;51.056;3.698;2022-12-15T20:55:57;184.35;;;87.02;;
70075;SDS011;63241;51.056;3.698;2022-12-15T20:58:25;186.37;;;90.07;;
70075;SDS011;63241;51.056;3.698;2022-12-15T21:07:25;164.30;;;82.40;;
70075;SDS011;63241;51.056;3.698;2022-12-15T21:09:53;155.82;;;84.97;;
70075;SDS011;63241;51.056;3.698;2022-12-15T21:12:21;159.00;;;84.28;;
70075;SDS011;63241;51.056;3.698;2022-12-15T21:23:56;162.35;;;92.57;;
70075;SDS011;63241;51.056;3.698;2022-12-15T21:26:26;157.55;;;89.35;;
70075;SDS011;63241;51.056;3.698;2022-12-15T21:35:30;165.92;;;86.75;;
70075;SDS011;63241;51.056;3.698;2022-12-15T21:37:59;161.07;;;89.22;;
70075;SDS011;63241;51.056;3.698;2022-12-15T21:40:27;163.32;;;86.00;;
70075;SDS011;63241;51.056;3.698;2022-12-15T21:46:48;148.00;;;81.08;;
70075;SDS011;63241;51.056;3.698;2022-12-15T21:49:16;178.35;;;91.67;;
70075;SDS011;63241;51.056;3.698;2022-12-15T21:51:52;174.05;;;90.60;;
70075;SDS011;63241;51.056;3.698;2022-12-15T21:54:23;180.57;;;94.65;;
70075;SDS011;63241;51.056;3.698;2022-12-15T22:00:41;172.13;;;91.70;;
70075;SDS011;63241;51.056;3.698;2022-12-15T22:03:09;180.30;;;92.57;;
70075;SDS011;63241;51.056;3.698;2022-12-15T22:05:37;167.03;;;84.67;;
70075;SDS011;63241;51.056;3.698;2022-12-15T22:08:13;159.97;;;84.40;;
70075;SDS011;63241;51.056;3.698;2022-12-15T22:17:15;192.77;;;93.92;;
70075;SDS011;63241;51.056;3.698;2022-12-15T22:19:45;198.62;;;98.47;;
70075;SDS011;63241;51.056;3.698;2022-12-15T22:22:13;201.12;;;95.38;;
70075;SDS011;63241;51.056;3.698;2022-12-15T23:00:44;170.97;;;82.55;;
70075;SDS011;63241;51.056;3.698;2022-12-15T23:03:12;168.95;;;85.90;;
70075;SDS011;63241;51.056;3.698;2022-12-15T23:09:21;171.87;;;84.28;;
70075;SDS011;63241;51.056;3.698;2022-12-15T23:11:49;147.13;;;74.87;;
70075;SDS011;63241;51.056;3.698;2022-12-15T23:14:17;148.93;;;79.17;;
70075;SDS011;63241;51.056;3.698;2022-12-15T23:16:46;161.65;;;80.47;;
70075;SDS011;63241;51.056;3.698;2022-12-15T23:22:56;138.45;;;72.45;;
70075;SDS011;63241;51.056;3.698;2022-12-15T23:25:24;144.70;;;75.80;;
70075;SDS011;63241;51.056;3.698;2022-12-15T23:27:52;147.70;;;76.80;;
70075;SDS011;63241;51.056;3.698;2022-12-15T23:30:20;148.85;;;75.17;;
70075;SDS011;63241;51.056;3.698;2022-12-15T23:32:49;145.15;;;69.65;;
70075;SDS011;63241;51.056;3.698;2022-12-15T23:35:17;136.22;;;69.32;;
70075;SDS011;63241;51.056;3.698;2022-12-15T23:37:45;132.85;;;67.00;;
70075;SDS011;63241;51.056;3.698;2022-12-15T23:40:13;145.53;;;69.37;;
70075;SDS011;63241;51.056;3.698;2022-12-15T23:42:42;140.92;;;65.87;;
70075;SDS011;63241;51.056;3.698;2022-12-15T23:45:10;126.07;;;62.98;;
70075;SDS011;63241;51.056;3.698;2022-12-15T23:47:38;140.95;;;66.85;;
70075;SDS011;63241;51.056;3.698;2022-12-15T23:50:06;135.65;;;68.47;;
70075;SDS011;63241;51.056;3.698;2022-12-15T23:52:35;135.28;;;69.35;;
70075;SDS011;63241;51.056;3.698;2022-12-15T23:55:03;133.07;;;65.50;;
70075;SDS011;63241;51.056;3.698;2022-12-15T23:57:33;129.03;;;66.80;;
